sensor_id;sensor_type;location;lat;lon;timestamp;pressure;altitude;pressure_sealevel;temperature;humidity
60427;BME280;46274;47.168;27.604;2023-05-10T00:05:48;100689.75;;;9.10;71.62
60427;BME280;46274;47.168;27.604;2023-05-10T00:11:51;100686.94;;;8.37;76.04
60427;BME280;46274;47.168;27.604;2023-05-10T00:17:56;100651.16;;;8.90;71.68
60427;BME280;46274;47.168;27.604;2023-05-10T00:23:59;100684.59;;;9.16;71.27
60427;BME280;46274;47.168;27.604;2023-05-10T00:30:11;100679.97;;;9.27;70.70
60427;BME280;46274;47.168;27.604;2023-05-10T00:36:15;100625.53;;;8.94;70.88
60427;BME280;46274;47.168;27.604;2023-05-10T00:42:20;100627.41;;;8.93;70.52
60427;BME280;46274;47.168;27.604;2023-05-10T00:48:26;100627.38;;;8.01;73.72
60427;BME280;46274;47.168;27.604;2023-05-10T00:54:38;100655.34;;;9.02;70.53
60427;BME280;46274;47.168;27.604;2023-05-10T01:00:42;100662.66;;;9.20;69.65
60427;BME280;46274;47.168;27.604;2023-05-10T01:06:49;100563.16;;;8.42;70.18
60427;BME280;46274;47.168;27.604;2023-05-10T01:12:53;100635.78;;;8.72;70.78
60427;BME280;46274;47.168;27.604;2023-05-10T01:18:59;100567.63;;;7.86;72.13
60427;BME280;46274;47.168;27.604;2023-05-10T01:38:07;100588.75;;;8.28;71.00
60427;BME280;46274;47.168;27.604;2023-05-10T01:50:30;100542.22;;;8.16;69.77
60427;BME280;46274;47.168;27.604;2023-05-10T01:56:34;100633.97;;;8.63;69.55
60427;BME280;46274;47.168;27.604;2023-05-10T02:02:52;100634.75;;;8.36;70.39
60427;BME280;46274;47.168;27.604;2023-05-10T02:08:56;100628.69;;;8.34;69.68
60427;BME280;46274;47.168;27.604;2023-05-10T02:15:02;100492.88;;;7.59;68.97
60427;BME280;46274;47.168;27.604;2023-05-10T02:21:08;100605.69;;;8.20;69.42
60427;BME280;46274;47.168;27.604;2023-05-10T02:27:14;100636.25;;;7.45;72.66
60427;BME280;46274;47.168;27.604;2023-05-10T02:33:20;100623.44;;;8.23;69.56
60427;BME280;46274;47.168;27.604;2023-05-10T02:39:26;100556.63;;;7.97;69.29
60427;BME280;46274;47.168;27.604;2023-05-10T02:45:35;100627.00;;;8.23;69.39
60427;BME280;46274;47.168;27.604;2023-05-10T02:51:44;100628.28;;;7.43;72.09
60427;BME280;46274;47.168;27.604;2023-05-10T02:57:54;100601.84;;;7.85;70.15
60427;BME280;46274;47.168;27.604;2023-05-10T03:04:01;100620.81;;;8.13;69.10
60427;BME280;46274;47.168;27.604;2023-05-10T03:10:15;100629.38;;;7.79;70.98
60427;BME280;46274;47.168;27.604;2023-05-10T03:17:04;100633.25;;;8.24;69.19
60427;BME280;46274;47.168;27.604;2023-05-10T03:23:12;100630.47;;;8.06;70.26
60427;BME280;46274;47.168;27.604;2023-05-10T03:29:23;100628.81;;;7.95;70.74
60427;BME280;46274;47.168;27.604;2023-05-10T03:35:36;100543.47;;;7.28;70.92
60427;BME280;46274;47.168;27.604;2023-05-10T03:41:57;100632.97;;;7.51;71.53
60427;BME280;46274;47.168;27.604;2023-05-10T03:48:10;100589.38;;;7.75;69.76
60427;BME280;46274;47.168;27.604;2023-05-10T03:54:28;100636.59;;;8.08;69.45
60427;BME280;46274;47.168;27.604;2023-05-10T04:00:38;100636.31;;;7.92;70.49
60427;BME280;46274;47.168;27.604;2023-05-10T04:06:45;100645.00;;;7.95;70.28
60427;BME280;46274;47.168;27.604;2023-05-10T04:12:49;100648.38;;;7.97;70.61
60427;BME280;46274;47.168;27.604;2023-05-10T04:18:51;100601.72;;;7.77;70.17
60427;BME280;46274;47.168;27.604;2023-05-10T04:25:03;100653.50;;;8.00;70.88
60427;BME280;46274;47.168;27.604;2023-05-10T04:31:12;100648.13;;;8.00;70.62
60427;BME280;46274;47.168;27.604;2023-05-10T04:37:16;100661.66;;;8.18;70.48
60427;BME280;46274;47.168;27.604;2023-05-10T04:43:21;100662.53;;;8.19;70.66
60427;BME280;46274;47.168;27.604;2023-05-10T04:49:26;100657.66;;;8.32;70.06
60427;BME280;46274;47.168;27.604;2023-05-10T04:55:39;100655.41;;;8.27;70.19
60427;BME280;46274;47.168;27.604;2023-05-10T05:01:42;100498.88;;;7.53;69.76
60427;BME280;46274;47.168;27.604;2023-05-10T05:08:14;100497.72;;;7.55;70.07
60427;BME280;46274;47.168;27.604;2023-05-10T05:14:18;100653.78;;;8.82;69.46
60427;BME280;46274;47.168;27.604;2023-05-10T05:20:26;100630.22;;;8.74;69.16
60427;BME280;46274;47.168;27.604;2023-05-10T05:26:37;100630.16;;;8.84;68.91
60427;BME280;46274;47.168;27.604;2023-05-10T05:32:42;100508.91;;;8.25;67.92
60427;BME280;46274;47.168;27.604;2023-05-10T05:38:56;100604.16;;;9.36;67.86
60427;BME280;46274;47.168;27.604;2023-05-10T05:52:40;100613.09;;;9.37;63.01
60427;BME280;46274;47.168;27.604;2023-05-10T05:58:50;100546.63;;;9.52;63.92
60427;BME280;46274;47.168;27.604;2023-05-10T06:05:00;100636.41;;;10.18;61.98
60427;BME280;46274;47.168;27.604;2023-05-10T06:11:11;100646.50;;;10.68;61.35
60427;BME280;46274;47.168;27.604;2023-05-10T06:17:13;100673.41;;;11.12;61.50
60427;BME280;46274;47.168;27.604;2023-05-10T06:23:29;100443.56;;;10.06;61.29
60427;BME280;46274;47.168;27.604;2023-05-10T06:29:41;100586.47;;;11.05;59.61
60427;BME280;46274;47.168;27.604;2023-05-10T06:35:46;100648.91;;;11.54;57.78
60427;BME280;46274;47.168;27.604;2023-05-10T06:41:58;100429.66;;;10.35;57.02
60427;BME280;46274;47.168;27.604;2023-05-10T06:47:59;100611.41;;;11.33;55.04
60427;BME280;46274;47.168;27.604;2023-05-10T06:54:05;100586.28;;;11.81;57.43
60427;BME280;46274;47.168;27.604;2023-05-10T07:00:09;100626.34;;;12.03;54.61
60427;BME280;46274;47.168;27.604;2023-05-10T07:06:13;100651.09;;;11.51;54.67
60427;BME280;46274;47.168;27.604;2023-05-10T07:12:34;100652.06;;;12.40;56.99
60427;BME280;46274;47.168;27.604;2023-05-10T07:18:41;100668.97;;;12.66;54.56
60427;BME280;46274;47.168;27.604;2023-05-10T07:24:43;100666.84;;;12.46;52.79
60427;BME280;46274;47.168;27.604;2023-05-10T07:31:02;100597.91;;;12.70;51.61
60427;BME280;46274;47.168;27.604;2023-05-10T07:37:17;100556.34;;;12.61;51.10
60427;BME280;46274;47.168;27.604;2023-05-10T07:43:20;100430.19;;;12.24;51.70
60427;BME280;46274;47.168;27.604;2023-05-10T07:49:30;100657.94;;;13.62;50.04
60427;BME280;46274;47.168;27.604;2023-05-10T08:02:43;100632.22;;;14.02;48.88
60427;BME280;46274;47.168;27.604;2023-05-10T08:08:48;100649.59;;;14.54;45.87
60427;BME280;46274;47.168;27.604;2023-05-10T08:15:02;100650.00;;;14.43;47.75
60427;BME280;46274;47.168;27.604;2023-05-10T08:21:06;100670.53;;;14.98;45.70
60427;BME280;46274;47.168;27.604;2023-05-10T08:27:09;100660.22;;;15.15;44.66
60427;BME280;46274;47.168;27.604;2023-05-10T08:33:22;100654.84;;;15.43;43.56
60427;BME280;46274;47.168;27.604;2023-05-10T08:39:25;100662.22;;;15.06;42.49
60427;BME280;46274;47.168;27.604;2023-05-10T08:45:41;100637.03;;;15.25;43.02
60427;BME280;46274;47.168;27.604;2023-05-10T08:51:48;100586.16;;;15.39;38.98
60427;BME280;46274;47.168;27.604;2023-05-10T08:58:00;100626.25;;;15.82;39.93
60427;BME280;46274;47.168;27.604;2023-05-10T09:04:09;100634.03;;;16.34;40.72
60427;BME280;46274;47.168;27.604;2023-05-10T09:10:13;100617.03;;;15.18;41.04
60427;BME280;46274;47.168;27.604;2023-05-10T09:16:16;100553.41;;;15.67;39.55
60427;BME280;46274;47.168;27.604;2023-05-10T09:22:25;100641.75;;;15.75;37.67
60427;BME280;46274;47.168;27.604;2023-05-10T09:28:32;100629.69;;;15.26;37.00
60427;BME280;46274;47.168;27.604;2023-05-10T09:34:34;100632.06;;;15.14;38.70
60427;BME280;46274;47.168;27.604;2023-05-10T09:40:52;100633.47;;;14.74;35.30
60427;BME280;46274;47.168;27.604;2023-05-10T09:47:09;100622.03;;;15.58;35.09
60427;BME280;46274;47.168;27.604;2023-05-10T09:53:14;100618.59;;;15.49;35.89
60427;BME280;46274;47.168;27.604;2023-05-10T09:59:18;100618.91;;;15.82;35.42
60427;BME280;46274;47.168;27.604;2023-05-10T10:05:33;100613.66;;;15.59;35.44
60427;BME280;46274;47.168;27.604;2023-05-10T10:11:37;100614.78;;;15.07;40.53
60427;BME280;46274;47.168;27.604;2023-05-10T10:17:41;100592.09;;;15.28;41.30
60427;BME280;46274;47.168;27.604;2023-05-10T10:23:50;100585.50;;;14.79;42.32
60427;BME280;46274;47.168;27.604;2023-05-10T10:36:16;100613.34;;;14.90;42.49
60427;BME280;46274;47.168;27.604;2023-05-10T10:42:44;100618.19;;;15.52;41.70
60427;BME280;46274;47.168;27.604;2023-05-10T10:49:08;100613.88;;;15.00;43.46
60427;BME280;46274;47.168;27.604;2023-05-10T10:55:21;100612.09;;;15.50;43.05
60427;BME280;46274;47.168;27.604;2023-05-10T11:01:34;100533.88;;;14.63;41.72
60427;BME280;46274;47.168;27.604;2023-05-10T11:07:57;100584.25;;;15.18;42.41
60427;BME280;46274;47.168;27.604;2023-05-10T11:14:05;100606.09;;;15.40;41.40
60427;BME280;46274;47.168;27.604;2023-05-10T11:20:13;100546.13;;;14.37;41.19
60427;BME280;46274;47.168;27.604;2023-05-10T11:26:30;100560.91;;;15.37;41.57
60427;BME280;46274;47.168;27.604;2023-05-10T11:32:38;100585.63;;;15.72;41.26
60427;BME280;46274;47.168;27.604;2023-05-10T11:38:49;100549.34;;;15.35;40.81
60427;BME280;46274;47.168;27.604;2023-05-10T11:44:54;100590.53;;;16.11;39.34
60427;BME280;46274;47.168;27.604;2023-05-10T11:50:58;100535.88;;;16.11;40.40
60427;BME280;46274;47.168;27.604;2023-05-10T11:57:04;100593.56;;;16.23;38.80
60427;BME280;46274;47.168;27.604;2023-05-10T12:03:11;100588.41;;;15.79;40.26
60427;BME280;46274;47.168;27.604;2023-05-10T12:09:24;100576.91;;;16.18;38.57
60427;BME280;46274;47.168;27.604;2023-05-10T12:15:44;100580.00;;;16.08;38.67
60427;BME280;46274;47.168;27.604;2023-05-10T12:21:52;100573.50;;;16.09;37.20
60427;BME280;46274;47.168;27.604;2023-05-10T12:28:05;100543.78;;;16.00;37.92
60427;BME280;46274;47.168;27.604;2023-05-10T12:34:15;100469.22;;;16.12;37.50
60427;BME280;46274;47.168;27.604;2023-05-10T12:40:24;100435.81;;;15.76;37.11
60427;BME280;46274;47.168;27.604;2023-05-10T12:46:34;100559.50;;;16.26;38.49
60427;BME280;46274;47.168;27.604;2023-05-10T12:52:37;100452.09;;;15.97;37.34
60427;BME280;46274;47.168;27.604;2023-05-10T12:58:40;100550.50;;;15.97;37.85
60427;BME280;46274;47.168;27.604;2023-05-10T13:04:44;100548.88;;;16.09;37.22
60427;BME280;46274;47.168;27.604;2023-05-10T13:10:52;100515.88;;;15.76;37.52
60427;BME280;46274;47.168;27.604;2023-05-10T13:16:57;100532.28;;;15.76;38.20
60427;BME280;46274;47.168;27.604;2023-05-10T13:23:01;100532.91;;;16.06;39.20
60427;BME280;46274;47.168;27.604;2023-05-10T13:29:19;100453.22;;;15.75;38.12
60427;BME280;46274;47.168;27.604;2023-05-10T13:35:23;100502.53;;;15.95;37.94
60427;BME280;46274;47.168;27.604;2023-05-10T13:41:25;100496.81;;;16.24;37.85
60427;BME280;46274;47.168;27.604;2023-05-10T13:47:30;100499.38;;;16.32;38.96
60427;BME280;46274;47.168;27.604;2023-05-10T13:53:42;100513.41;;;16.71;36.77
60427;BME280;46274;47.168;27.604;2023-05-10T13:59:46;100467.47;;;16.53;37.70
60427;BME280;46274;47.168;27.604;2023-05-10T14:05:51;100469.06;;;16.34;36.14
60427;BME280;46274;47.168;27.604;2023-05-10T14:12:03;100504.66;;;16.95;36.30
60427;BME280;46274;47.168;27.604;2023-05-10T14:18:05;100494.84;;;16.53;36.27
60427;BME280;46274;47.168;27.604;2023-05-10T14:24:07;100481.56;;;16.56;36.35
60427;BME280;46274;47.168;27.604;2023-05-10T14:30:10;100471.28;;;16.58;36.17
60427;BME280;46274;47.168;27.604;2023-05-10T14:36:17;100469.84;;;16.14;36.43
60427;BME280;46274;47.168;27.604;2023-05-10T14:42:24;100443.19;;;16.91;36.17
60427;BME280;46274;47.168;27.604;2023-05-10T14:48:28;100484.47;;;17.23;35.30
60427;BME280;46274;47.168;27.604;2023-05-10T14:54:31;100493.75;;;17.35;36.64
60427;BME280;46274;47.168;27.604;2023-05-10T15:00:35;100452.88;;;17.07;34.62
60427;BME280;46274;47.168;27.604;2023-05-10T15:06:43;100420.03;;;16.26;34.98
60427;BME280;46274;47.168;27.604;2023-05-10T15:12:53;100489.00;;;16.76;35.59
60427;BME280;46274;47.168;27.604;2023-05-10T15:18:58;100444.34;;;16.62;36.08
60427;BME280;46274;47.168;27.604;2023-05-10T15:25:01;100385.63;;;15.83;37.26
60427;BME280;46274;47.168;27.604;2023-05-10T15:31:04;100351.88;;;15.63;36.50
60427;BME280;46274;47.168;27.604;2023-05-10T15:37:07;100454.53;;;16.20;36.20
60427;BME280;46274;47.168;27.604;2023-05-10T15:43:11;100367.09;;;15.72;37.09
60427;BME280;46274;47.168;27.604;2023-05-10T15:49:13;100466.47;;;16.06;37.66
60427;BME280;46274;47.168;27.604;2023-05-10T15:55:16;100483.34;;;15.81;37.26
60427;BME280;46274;47.168;27.604;2023-05-10T16:01:19;100376.81;;;15.18;38.01
60427;BME280;46274;47.168;27.604;2023-05-10T16:07:33;100437.13;;;15.58;38.65
60427;BME280;46274;47.168;27.604;2023-05-10T16:13:38;100473.00;;;15.77;39.28
60427;BME280;46274;47.168;27.604;2023-05-10T16:19:41;100474.47;;;15.73;39.61
60427;BME280;46274;47.168;27.604;2023-05-10T16:25:43;100469.41;;;15.48;39.70
60427;BME280;46274;47.168;27.604;2023-05-10T16:31:47;100482.56;;;15.38;39.87
60427;BME280;46274;47.168;27.604;2023-05-10T16:37:52;100438.38;;;14.99;41.09
60427;BME280;46274;47.168;27.604;2023-05-10T16:43:57;100464.94;;;15.12;40.94
60427;BME280;46274;47.168;27.604;2023-05-10T16:50:03;100481.81;;;15.22;40.99
60427;BME280;46274;47.168;27.604;2023-05-10T16:56:06;100486.66;;;14.99;41.93
60427;BME280;46274;47.168;27.604;2023-05-10T17:02:08;100365.75;;;13.76;44.41
60427;BME280;46274;47.168;27.604;2023-05-10T17:08:13;100495.53;;;14.50;44.53
60427;BME280;46274;47.168;27.604;2023-05-10T17:14:19;100414.97;;;14.11;44.41
60427;BME280;46274;47.168;27.604;2023-05-10T17:20:27;100395.88;;;13.30;48.02
60427;BME280;46274;47.168;27.604;2023-05-10T17:26:36;100471.56;;;14.60;45.85
60427;BME280;46274;47.168;27.604;2023-05-10T17:32:40;100502.78;;;14.43;46.60
60427;BME280;46274;47.168;27.604;2023-05-10T17:38:48;100502.69;;;13.32;49.48
60427;BME280;46274;47.168;27.604;2023-05-10T17:44:52;100484.69;;;13.75;48.72
60427;BME280;46274;47.168;27.604;2023-05-10T17:50:55;100512.78;;;13.91;48.39
60427;BME280;46274;47.168;27.604;2023-05-10T17:57:03;100519.91;;;14.07;48.31
60427;BME280;46274;47.168;27.604;2023-05-10T18:03:07;100478.59;;;13.59;49.17
60427;BME280;46274;47.168;27.604;2023-05-10T18:09:17;100482.88;;;13.38;50.52
60427;BME280;46274;47.168;27.604;2023-05-10T18:15:24;100301.28;;;11.72;50.92
60427;BME280;46274;47.168;27.604;2023-05-10T18:21:26;100408.34;;;10.81;54.06
60427;BME280;46274;47.168;27.604;2023-05-10T18:27:29;100565.22;;;12.07;52.57
60427;BME280;46274;47.168;27.604;2023-05-10T18:33:31;100439.69;;;11.00;54.66
60427;BME280;46274;47.168;27.604;2023-05-10T18:39:37;100493.38;;;10.21;58.46
60427;BME280;46274;47.168;27.604;2023-05-10T18:45:42;100569.22;;;12.28;53.19
60427;BME280;46274;47.168;27.604;2023-05-10T18:51:57;100566.44;;;12.44;53.11
60427;BME280;46274;47.168;27.604;2023-05-10T18:57:59;100544.59;;;11.08;56.65
60427;BME280;46274;47.168;27.604;2023-05-10T19:04:02;100478.75;;;9.11;62.83
60427;BME280;46274;47.168;27.604;2023-05-10T19:10:07;100552.75;;;9.54;64.35
60427;BME280;46274;47.168;27.604;2023-05-10T19:16:13;100568.50;;;11.53;56.39
60427;BME280;46274;47.168;27.604;2023-05-10T19:22:23;100549.38;;;11.39;56.21
60427;BME280;46274;47.168;27.604;2023-05-10T19:28:55;100576.09;;;10.84;59.25
60427;BME280;46274;47.168;27.604;2023-05-10T19:35:12;100590.22;;;11.21;59.63
60427;BME280;46274;47.168;27.604;2023-05-10T19:41:17;100393.94;;;9.81;59.96
60427;BME280;46274;47.168;27.604;2023-05-10T19:47:29;100587.97;;;10.15;62.93
60427;BME280;46274;47.168;27.604;2023-05-10T19:53:40;100530.66;;;10.78;58.10
60427;BME280;46274;47.168;27.604;2023-05-10T19:59:49;100584.31;;;9.10;67.69
60427;BME280;46274;47.168;27.604;2023-05-10T20:05:54;100587.63;;;10.95;59.33
60427;BME280;46274;47.168;27.604;2023-05-10T20:11:57;100588.97;;;9.61;66.31
60427;BME280;46274;47.168;27.604;2023-05-10T20:18:05;100593.06;;;9.66;65.92
60427;BME280;46274;47.168;27.604;2023-05-10T20:24:08;100511.47;;;9.52;63.71
60427;BME280;46274;47.168;27.604;2023-05-10T20:30:15;100587.19;;;10.57;61.33
60427;BME280;46274;47.168;27.604;2023-05-10T20:36:27;100500.88;;;9.93;62.14
60427;BME280;46274;47.168;27.604;2023-05-10T20:42:30;100583.06;;;9.84;65.34
60427;BME280;46274;47.168;27.604;2023-05-10T20:48:39;100545.50;;;8.10;73.11
60427;BME280;46274;47.168;27.604;2023-05-10T20:54:48;100550.47;;;9.24;67.09
60427;BME280;46274;47.168;27.604;2023-05-10T21:00:54;100404.69;;;9.04;63.15
60427;BME280;46274;47.168;27.604;2023-05-10T21:07:00;100576.13;;;10.16;62.94
60427;BME280;46274;47.168;27.604;2023-05-10T21:13:14;100589.78;;;9.00;67.74
60427;BME280;46274;47.168;27.604;2023-05-10T21:19:19;100508.03;;;8.07;70.19
60427;BME280;46274;47.168;27.604;2023-05-10T21:25:23;100429.41;;;8.38;66.03
60427;BME280;46274;47.168;27.604;2023-05-10T21:31:28;100581.78;;;9.52;64.66
60427;BME280;46274;47.168;27.604;2023-05-10T21:37:32;100589.25;;;9.50;64.35
60427;BME280;46274;47.168;27.604;2023-05-10T21:43:48;100465.59;;;8.72;64.43
60427;BME280;46274;47.168;27.604;2023-05-10T21:49:50;100464.25;;;8.59;64.17
60427;BME280;46274;47.168;27.604;2023-05-10T21:55:53;100580.41;;;7.74;71.64
60427;BME280;46274;47.168;27.604;2023-05-10T22:02:01;100410.50;;;6.02;74.87
60427;BME280;46274;47.168;27.604;2023-05-10T22:08:05;100568.06;;;6.36;77.88
60427;BME280;46274;47.168;27.604;2023-05-10T22:14:22;100570.81;;;8.09;69.12
60427;BME280;46274;47.168;27.604;2023-05-10T22:20:43;100567.72;;;7.94;68.23
60427;BME280;46274;47.168;27.604;2023-05-10T22:26:48;100537.13;;;5.38;81.86
60427;BME280;46274;47.168;27.604;2023-05-10T22:32:51;100571.31;;;5.36;84.60
60427;BME280;46274;47.168;27.604;2023-05-10T22:39:00;100485.34;;;6.47;73.51
60427;BME280;46274;47.168;27.604;2023-05-10T22:45:25;100544.00;;;6.03;77.69
60427;BME280;46274;47.168;27.604;2023-05-10T22:51:30;100580.50;;;7.06;73.69
60427;BME280;46274;47.168;27.604;2023-05-10T22:57:38;100317.94;;;4.32;77.76
60427;BME280;46274;47.168;27.604;2023-05-10T23:03:41;100329.16;;;4.37;76.76
60427;BME280;46274;47.168;27.604;2023-05-10T23:09:55;100485.38;;;6.76;70.17
60427;BME280;46274;47.168;27.604;2023-05-10T23:16:06;100439.44;;;4.44;81.94
60427;BME280;46274;47.168;27.604;2023-05-10T23:22:12;100542.59;;;5.99;75.06
60427;BME280;46274;47.168;27.604;2023-05-10T23:28:18;100423.78;;;5.94;72.37
60427;BME280;46274;47.168;27.604;2023-05-10T23:34:25;100545.34;;;7.08;69.54
60427;BME280;46274;47.168;27.604;2023-05-10T23:40:51;100480.78;;;6.48;70.08
60427;BME280;46274;47.168;27.604;2023-05-10T23:46:54;100581.34;;;4.80;80.16
60427;BME280;46274;47.168;27.604;2023-05-10T23:52:56;100412.88;;;3.42;84.27
60427;BME280;46274;47.168;27.604;2023-05-10T23:59:01;100546.72;;;6.13;74.40
